Tom Frazier — WDD4376 — position and weather

sailwx.info

Track history (hours):
 
Tides and Currents Weather Stations Pressure Air Temp Water Temp Dewpoint Dewpoint Depression Visibility Wind Speed Wind Dir Waves Ship Positions

Tom Frazier

Owner: American Commercial Lines LLC, Jeffersonville, IN. More information available from US FCC via Universal Licensing System and Coast Guard Vessel Documentation Center.

Last reported at 2015-May-23 15:33 UTC. Time now 2015-May-27 18:03 UTC.
Position N 38°42' W 083°49'.

Length 48 m; draft 2.9 m.

MMSI: 367143910.

Date/timePositionNaut miles runAvg speedWind from/ knotsBaromVisibWave heightAir tempDewpointWater temp
2015-May-23 15:33N 38°42' W 083°49'5 5.2
2015-May-23 14:31N 38°46' W 083°54'7 5.4
2015-May-23 13:08N 38°46' W 084°03'3 5.7
2015-May-23 12:33N 38°47' W 084°07'3 2.5
2015-May-23 11:32N 38°48' W 084°11'1 1.5
2015-May-23 10:32N 38°48' W 084°12'2 2.2
2015-May-23 09:33N 38°50' W 084°14'5 5.1
2015-May-23 08:33N 38°55' W 084°15'5 5.0
2015-May-23 07:33N 38°59' W 084°18'4 3.5
2015-May-23 06:33N 39°02' W 084°21'4 4.4
2015-May-23 05:32N 39°04' W 084°26'4 3.8
2015-May-23 04:34N 39°07' W 084°29'4 4.1
2015-May-23 03:33N 39°05' W 084°34'5 4.6
2015-May-23 02:33N 39°06' W 084°40'5 4.6
2015-May-23 01:33N 39°09' W 084°44'  
Track history (hours):
 
Tides and Currents Weather Stations Pressure Air Temp Water Temp Dewpoint Dewpoint Depression Visibility Wind Speed Wind Dir Waves Ship Positions

Tom Frazier

Owner: American Commercial Lines LLC, Jeffersonville, IN. More information available from US FCC via Universal Licensing System and Coast Guard Vessel Documentation Center.

Last reported at 2015-May-23 15:33 UTC. Time now 2015-May-27 18:03 UTC.
Position N 38°42' W 083°49'.

Length 48 m; draft 2.9 m.

MMSI: 367143910.

Date/timePositionNaut miles runAvg speedWind from/ knotsBaromVisibWave heightAir tempDewpointWater temp
2015-May-23 15:33N 38°42' W 083°49'5 5.2
2015-May-23 14:31N 38°46' W 083°54'7 5.4
2015-May-23 13:08N 38°46' W 084°03'3 5.7
2015-May-23 12:33N 38°47' W 084°07'3 2.5
2015-May-23 11:32N 38°48' W 084°11'1 1.5
2015-May-23 10:32N 38°48' W 084°12'2 2.2
2015-May-23 09:33N 38°50' W 084°14'5 5.1
2015-May-23 08:33N 38°55' W 084°15'5 5.0
2015-May-23 07:33N 38°59' W 084°18'4 3.5
2015-May-23 06:33N 39°02' W 084°21'4 4.4
2015-May-23 05:32N 39°04' W 084°26'4 3.8
2015-May-23 04:34N 39°07' W 084°29'4 4.1
2015-May-23 03:33N 39°05' W 084°34'5 4.6
2015-May-23 02:33N 39°06' W 084°40'5 4.6
2015-May-23 01:33N 39°09' W 084°44'  

Dump ship's entire track history